Time;durP1;ratioP1;P1;durP2;ratioP2;P2;SDS_P1;SDS_P2;PMS_P1;PMS_P2;Temp;Humidity;BMP_temperature;BMP_pressure;BME280_temperature;BME280_humidity;BME280_pressure;Samples;Min_cycle;Max_cycle;Signal;HPM_P1;HPM_P2
2021/05/03 00:00:08;;;;;;;10.37;8.50;;;8.30;99.90;;;;;;5045619;28;20202;-76
2021/05/03 00:02:36;;;;;;;9.53;7.10;;;8.30;99.90;;;;;;5045374;28;20221;-76
2021/05/03 00:05:03;;;;;;;8.73;7.00;;;8.30;99.90;;;;;;5045514;28;20210;-77
2021/05/03 00:07:29;;;;;;;8.67;6.80;;;8.30;99.90;;;;;;5045736;28;20198;-78
2021/05/03 00:09:55;;;;;;;10.87;6.87;;;8.30;99.90;;;;;;5044725;28;20229;-78
2021/05/03 00:12:21;;;;;;;11.03;6.73;;;8.30;99.90;;;;;;5045512;28;20210;-78
2021/05/03 00:14:50;;;;;;;13.43;6.70;;;8.30;99.90;;;;;;5045336;28;20221;-77
2021/05/03 00:17:16;;;;;;;9.63;7.10;;;8.30;99.90;;;;;;5044167;28;20235;-77
2021/05/03 00:19:42;;;;;;;10.53;6.73;;;8.30;99.90;;;;;;5045117;28;20198;-78
2021/05/03 00:22:09;;;;;;;9.10;6.47;;;8.20;99.90;;;;;;5045612;28;20233;-79
2021/05/03 00:24:35;;;;;;;10.53;7.00;;;8.20;99.90;;;;;;5044531;28;20213;-78
2021/05/03 00:27:02;;;;;;;7.87;5.70;;;8.20;99.90;;;;;;5044679;28;20633;-77
2021/05/03 00:29:28;;;;;;;9.90;5.93;;;8.20;99.90;;;;;;5044701;28;20280;-77
2021/05/03 00:31:55;;;;;;;9.97;6.03;;;8.20;99.90;;;;;;5044498;28;20240;-79
2021/05/03 00:34:21;;;;;;;6.73;5.93;;;8.20;99.90;;;;;;5044869;28;20593;-78
2021/05/03 00:36:47;;;;;;;10.17;6.17;;;8.20;99.90;;;;;;5045324;28;20205;-79
2021/05/03 00:39:14;;;;;;;9.27;6.67;;;8.20;99.90;;;;;;5045019;28;20201;-80
2021/05/03 00:41:40;;;;;;;6.23;5.20;;;8.20;99.90;;;;;;5045722;28;20747;-78
2021/05/03 00:44:07;;;;;;;8.40;5.30;;;8.20;99.90;;;;;;5047098;28;20209;-77
2021/05/03 00:46:33;;;;;;;9.07;4.70;;;8.30;99.90;;;;;;5046114;28;20208;-78
2021/05/03 00:49:00;;;;;;;6.70;4.47;;;8.30;99.90;;;;;;5045596;28;20323;-78
2021/05/03 00:51:27;;;;;;;7.90;4.47;;;8.30;99.90;;;;;;5045062;28;20240;-77
2021/05/03 00:53:53;;;;;;;11.97;4.80;;;8.30;99.90;;;;;;5044322;28;20205;-79
2021/05/03 00:56:19;;;;;;;8.53;4.57;;;8.30;99.90;;;;;;5044077;28;20202;-77
2021/05/03 00:58:46;;;;;;;10.03;5.10;;;8.30;99.90;;;;;;5044420;28;20194;-77
2021/05/03 01:01:12;;;;;;;5.33;3.90;;;8.30;99.90;;;;;;5043534;28;20212;-78
2021/05/03 01:03:38;;;;;;;8.17;4.37;;;8.30;99.90;;;;;;5058469;28;20209;-79
2021/05/03 01:06:06;;;;;;;7.43;4.27;;;8.30;99.90;;;;;;5063895;28;20820;-77
2021/05/03 01:08:32;;;;;;;7.50;4.07;;;8.30;99.90;;;;;;5046858;28;20692;-78
2021/05/03 01:10:59;;;;;;;5.63;4.23;;;8.30;99.90;;;;;;5044121;28;20202;-77
2021/05/03 01:13:25;;;;;;;6.87;4.10;;;8.30;99.90;;;;;;5042842;28;20205;-78
2021/05/03 01:15:52;;;;;;;9.40;4.80;;;8.30;99.90;;;;;;5044243;28;20198;-76
2021/05/03 01:18:24;;;;;;;6.47;4.00;;;8.40;99.90;;;;;;5043910;28;20205;-76
2021/05/03 01:20:54;;;;;;;6.77;3.93;;;8.40;99.90;;;;;;5043712;28;20264;-80
2021/05/03 01:23:20;;;;;;;8.10;5.07;;;8.40;99.90;;;;;;5043173;28;20245;-80
2021/05/03 01:25:47;;;;;;;6.40;4.63;;;8.40;99.90;;;;;;5047176;28;20578;-77
2021/05/03 01:28:13;;;;;;;8.07;4.83;;;8.40;99.90;;;;;;5062859;28;20267;-80
2021/05/03 01:30:42;;;;;;;5.80;4.87;;;8.40;99.90;;;;;;5063014;28;20832;-78
2021/05/03 01:33:10;;;;;;;6.50;4.60;;;8.40;99.90;;;;;;5063403;28;20197;-78
2021/05/03 01:35:38;;;;;;;6.10;4.67;;;8.40;99.90;;;;;;5043557;28;20260;-80
2021/05/03 01:38:07;;;;;;;7.97;5.00;;;8.40;99.90;;;;;;5044240;28;20216;-80
2021/05/03 01:40:36;;;;;;;6.73;5.33;;;8.40;99.90;;;;;;5044380;28;20498;-80
2021/05/03 01:43:11;;;;;;;5.77;5.27;;;8.40;99.90;;;;;;5044299;28;20320;-81
2021/05/03 01:45:38;;;;;;;7.40;5.07;;;8.40;99.90;;;;;;5043299;28;20271;-78
2021/05/03 01:48:05;;;;;;;7.67;5.57;;;8.40;99.90;;;;;;5044086;28;20222;-78
2021/05/03 01:50:32;;;;;;;9.23;6.13;;;8.40;99.90;;;;;;5042623;28;20680;-80
2021/05/03 01:52:59;;;;;;;7.60;5.83;;;8.40;99.90;;;;;;5043172;28;20547;-80
2021/05/03 01:55:26;;;;;;;9.47;6.70;;;8.40;99.90;;;;;;5044387;28;20212;-81
2021/05/03 01:57:52;;;;;;;7.97;6.47;;;8.40;99.90;;;;;;5049937;28;20201;-79
2021/05/03 02:00:19;;;;;;;9.17;6.47;;;8.40;99.90;;;;;;5049703;28;20681;-80
2021/05/03 02:02:46;;;;;;;8.43;6.53;;;8.40;99.90;;;;;;5050607;28;20205;-80
2021/05/03 02:05:18;;;;;;;8.00;6.70;;;8.40;99.90;;;;;;5050493;28;20210;-81
2021/05/03 02:07:44;;;;;;;9.70;7.23;;;8.40;99.90;;;;;;5050076;28;20658;-78
2021/05/03 02:10:11;;;;;;;12.00;7.87;;;8.40;99.90;;;;;;5052738;28;20230;-79
2021/05/03 02:12:39;;;;;;;14.53;7.97;;;8.50;99.90;;;;;;5071375;28;20208;-80
2021/05/03 02:15:08;;;;;;;13.37;8.47;;;8.40;99.90;;;;;;5070931;28;20209;-81
2021/05/03 02:17:34;;;;;;;10.73;8.20;;;8.50;99.90;;;;;;5064247;28;20213;-78
2021/05/03 02:20:01;;;;;;;13.13;8.37;;;8.50;99.90;;;;;;5049961;28;20966;-80
2021/05/03 02:22:27;;;;;;;17.37;8.33;;;8.50;99.90;;;;;;5049649;28;20241;-81
2021/05/03 02:24:53;;;;;;;12.60;8.80;;;8.50;99.90;;;;;;5048912;28;20201;-78
2021/05/03 02:27:19;;;;;;;13.53;9.20;;;8.50;99.90;;;;;;5049966;28;20205;-80
2021/05/03 02:29:47;;;;;;;10.97;8.73;;;8.50;99.90;;;;;;5056341;28;20240;-77
2021/05/03 02:32:13;;;;;;;11.90;9.60;;;8.50;99.90;;;;;;5069009;28;20523;-77
2021/05/03 02:34:39;;;;;;;12.37;9.63;;;8.50;99.90;;;;;;5069596;28;20700;-80
2021/05/03 02:37:06;;;;;;;12.67;9.77;;;8.50;99.90;;;;;;5059336;28;20224;-79
2021/05/03 02:39:32;;;;;;;17.50;10.57;;;8.50;99.90;;;;;;5049267;28;20194;-80
2021/05/03 02:41:59;;;;;;;15.60;10.90;;;8.50;99.90;;;;;;5049857;28;20197;-80
2021/05/03 02:44:25;;;;;;;13.57;10.33;;;8.60;99.90;;;;;;5049264;28;20205;-80
2021/05/03 02:46:53;;;;;;;15.93;10.70;;;8.50;99.90;;;;;;5049926;28;20202;-81
2021/05/03 02:49:19;;;;;;;19.53;11.47;;;8.60;99.90;;;;;;5049547;28;20213;-79
2021/05/03 02:51:45;;;;;;;14.83;11.27;;;8.70;99.90;;;;;;5048746;28;20221;-78
2021/05/03 02:54:12;;;;;;;19.93;12.90;;;8.70;99.90;;;;;;5050508;28;20855;-78
2021/05/03 02:56:38;;;;;;;19.17;13.20;;;8.70;99.90;;;;;;5059265;28;20209;-79
2021/05/03 02:59:05;;;;;;;20.57;14.40;;;8.80;99.90;;;;;;5069151;28;20628;-79
2021/05/03 03:01:31;;;;;;;25.30;14.20;;;8.80;99.90;;;;;;5069317;28;20224;-78
2021/05/03 03:03:58;;;;;;;22.83;14.23;;;8.80;99.90;;;;;;5055163;28;20214;-77
2021/05/03 03:06:24;;;;;;;20.03;14.13;;;8.80;99.90;;;;;;5049433;28;20252;-83
2021/05/03 03:08:51;;;;;;;18.70;14.03;;;8.90;99.90;;;;;;5046446;28;20202;-81
2021/05/03 03:11:19;;;;;;;23.97;15.17;;;8.90;99.90;;;;;;5047563;28;20206;-77
2021/05/03 03:13:45;;;;;;;21.30;16.57;;;8.90;99.90;;;;;;5046838;28;20198;-78
2021/05/03 03:16:15;;;;;;;19.87;16.67;;;8.90;99.90;;;;;;5047185;28;20198;-79
2021/05/03 03:18:41;;;;;;;29.03;17.47;;;8.90;99.90;;;;;;5046879;28;20217;-78
2021/05/03 03:21:08;;;;;;;26.97;19.10;;;8.90;99.90;;;;;;5046833;28;20205;-80
2021/05/03 03:23:34;;;;;;;24.33;18.10;;;8.90;99.90;;;;;;5046443;28;20456;-80
2021/05/03 03:26:01;;;;;;;25.77;17.70;;;8.90;99.90;;;;;;5046491;28;20209;-79
2021/05/03 03:28:27;;;;;;;32.80;20.73;;;8.90;99.90;;;;;;5045768;28;20217;-80
2021/05/03 03:30:53;;;;;;;27.70;19.80;;;8.90;99.90;;;;;;5047158;28;20233;-79
2021/05/03 03:33:19;;;;;;;25.30;19.13;;;9.00;99.90;;;;;;5047262;28;20218;-80
2021/05/03 03:35:46;;;;;;;24.20;17.87;;;9.00;99.90;;;;;;5046007;28;20212;-77
2021/05/03 03:38:13;;;;;;;25.47;17.43;;;8.90;99.90;;;;;;5046034;28;20283;-75
2021/05/03 03:40:40;;;;;;;25.57;18.23;;;9.00;99.90;;;;;;5045796;28;20201;-77
2021/05/03 03:43:06;;;;;;;23.10;17.60;;;9.00;99.90;;;;;;5046010;28;20210;-79
2021/05/03 03:45:32;;;;;;;26.50;18.43;;;9.00;99.90;;;;;;5045915;28;20194;-79
2021/05/03 03:47:59;;;;;;;26.77;19.90;;;9.00;99.90;;;;;;5046147;28;20749;-79
2021/05/03 03:50:26;;;;;;;25.73;19.37;;;9.00;99.90;;;;;;5045873;28;20230;-78
2021/05/03 03:52:52;;;;;;;28.83;18.57;;;9.00;99.90;;;;;;5045560;28;20221;-80
2021/05/03 03:55:19;;;;;;;26.27;19.63;;;9.00;99.90;;;;;;5045314;28;20263;-77
2021/05/03 03:57:45;;;;;;;26.73;18.57;;;9.00;99.90;;;;;;5046157;28;20253;-78
2021/05/03 04:00:13;;;;;;;29.33;20.33;;;9.00;99.90;;;;;;5046089;28;20206;-78
2021/05/03 04:02:39;;;;;;;25.20;20.73;;;9.00;99.90;;;;;;5045083;28;20660;-78
2021/05/03 04:05:15;;;;;;;30.77;20.97;;;9.00;99.90;;;;;;5045914;28;20201;-78
2021/05/03 04:07:42;;;;;;;28.83;21.73;;;9.00;99.90;;;;;;5045903;28;20212;-80
2021/05/03 04:10:19;;;;;;;36.63;24.37;;;9.10;99.90;;;;;;5045731;28;20230;-80
2021/05/03 04:21:07;;;;;;;30.87;22.33;;;9.00;99.90;;;;;;5044954;28;20802;-78
2021/05/03 04:26:21;;;;;;;34.87;25.77;;;9.00;99.90;;;;;;5046135;28;20190;-80
2021/05/03 04:28:50;;;;;;;30.27;24.63;;;9.00;99.90;;;;;;5045547;28;20218;-79
2021/05/03 04:31:18;;;;;;;32.53;24.43;;;9.10;99.90;;;;;;5045778;28;20594;-78
2021/05/03 04:33:44;;;;;;;34.60;24.30;;;9.10;99.90;;;;;;5046302;28;20206;-80
2021/05/03 04:36:11;;;;;;;32.97;24.27;;;9.10;99.90;;;;;;5046380;28;20206;-79
2021/05/03 04:38:38;;;;;;;32.93;23.60;;;9.10;99.90;;;;;;5044598;28;20202;-80
2021/05/03 04:41:04;;;;;;;31.43;23.73;;;9.10;99.90;;;;;;5045736;28;20653;-81
2021/05/03 04:43:31;;;;;;;39.87;25.60;;;9.10;99.90;;;;;;5045510;28;20407;-79
2021/05/03 04:45:58;;;;;;;30.47;24.00;;;9.10;99.90;;;;;;5043647;28;20209;-79
2021/05/03 04:48:27;;;;;;;30.63;22.87;;;9.10;99.90;;;;;;5044344;28;21103;-79
2021/05/03 04:50:53;;;;;;;43.33;27.17;;;9.10;99.90;;;;;;5044158;28;20230;-79
2021/05/03 04:53:20;;;;;;;35.57;24.13;;;9.10;99.90;;;;;;5043268;28;20249;-77
2021/05/03 04:55:47;;;;;;;33.77;23.83;;;9.20;99.90;;;;;;5044078;28;20214;-79
2021/05/03 04:58:15;;;;;;;32.97;24.47;;;9.20;99.90;;;;;;5043924;28;20206;-78
2021/05/03 05:00:41;;;;;;;39.03;26.73;;;9.20;99.90;;;;;;5044204;28;20228;-78
2021/05/03 05:03:09;;;;;;;36.97;27.63;;;9.20;99.90;;;;;;5043635;28;20209;-78
2021/05/03 05:05:35;;;;;;;48.37;28.53;;;9.30;99.90;;;;;;5042541;28;20198;-77
2021/05/03 05:08:01;;;;;;;37.63;25.30;;;9.30;99.90;;;;;;5044013;28;20275;-77
2021/05/03 05:10:28;;;;;;;39.07;25.10;;;9.30;99.90;;;;;;5043947;28;20312;-77
2021/05/03 05:12:54;;;;;;;37.00;26.23;;;9.30;99.90;;;;;;5043374;28;20202;-79
2021/05/03 05:15:20;;;;;;;33.20;24.77;;;9.40;99.90;;;;;;5043983;28;20549;-80
2021/05/03 05:17:48;;;;;;;36.03;26.27;;;9.40;99.90;;;;;;5046269;28;20202;-83
2021/05/03 05:20:16;;;;;;;37.40;25.20;;;9.40;99.90;;;;;;5045014;28;20221;-79
2021/05/03 05:22:42;;;;;;;37.17;25.60;;;9.40;99.90;;;;;;5044191;28;20504;-77
2021/05/03 05:25:10;;;;;;;35.13;26.97;;;9.40;99.90;;;;;;5044342;28;20205;-79
2021/05/03 05:27:37;;;;;;;39.57;28.20;;;9.40;99.90;;;;;;5042647;28;20213;-78
2021/05/03 05:30:04;;;;;;;45.03;29.83;;;9.40;99.90;;;;;;5042968;28;20229;-79
2021/05/03 05:32:30;;;;;;;38.27;28.60;;;9.40;99.90;;;;;;5043199;28;20213;-81
2021/05/03 05:34:56;;;;;;;34.23;27.43;;;9.40;99.90;;;;;;5044383;28;20194;-80
2021/05/03 05:37:24;;;;;;;38.47;28.57;;;9.40;99.90;;;;;;5043916;28;20213;-80
2021/05/03 05:39:50;;;;;;;41.77;29.70;;;9.40;99.90;;;;;;5043855;28;20198;-79
2021/05/03 05:42:16;;;;;;;46.23;29.50;;;9.50;99.90;;;;;;5042998;28;20216;-78
2021/05/03 05:44:43;;;;;;;37.87;28.67;;;9.50;99.90;;;;;;5043663;28;20263;-79
2021/05/03 05:47:09;;;;;;;42.27;27.93;;;9.50;99.90;;;;;;5043878;28;20626;-80
2021/05/03 05:49:36;;;;;;;38.97;30.33;;;9.50;99.90;;;;;;5042002;28;20304;-79
2021/05/03 05:52:02;;;;;;;42.87;30.43;;;9.50;99.90;;;;;;5042868;28;20218;-79
2021/05/03 05:54:29;;;;;;;44.60;31.37;;;9.50;99.90;;;;;;5043292;28;20198;-80
2021/05/03 05:56:56;;;;;;;46.10;31.67;;;9.60;99.90;;;;;;5042955;28;20650;-79
2021/05/03 05:59:23;;;;;;;44.17;33.03;;;9.60;99.90;;;;;;5043588;28;20267;-79
2021/05/03 06:01:50;;;;;;;41.20;31.13;;;9.60;99.90;;;;;;5043164;28;20780;-79
2021/05/03 06:04:17;;;;;;;41.80;31.93;;;9.60;99.90;;;;;;5044118;28;20248;-78
2021/05/03 06:06:44;;;;;;;48.17;33.27;;;9.60;99.90;;;;;;5043431;28;20604;-79
2021/05/03 06:09:10;;;;;;;44.23;31.50;;;9.70;99.90;;;;;;5042993;28;20260;-79
2021/05/03 06:11:38;;;;;;;42.80;29.83;;;9.70;99.90;;;;;;5042455;28;20202;-78
2021/05/03 06:14:04;;;;;;;42.80;30.20;;;9.70;99.90;;;;;;5043423;28;20598;-80
2021/05/03 06:16:30;;;;;;;42.87;32.30;;;9.70;99.90;;;;;;5042621;28;20236;-81
2021/05/03 06:18:56;;;;;;;51.07;31.43;;;9.70;99.90;;;;;;5043028;28;20908;-80
2021/05/03 06:21:23;;;;;;;42.67;29.57;;;9.70;99.90;;;;;;5042884;28;20230;-78
2021/05/03 06:23:49;;;;;;;39.83;29.60;;;9.80;99.90;;;;;;5043400;28;20209;-78
2021/05/03 06:26:16;;;;;;;44.93;32.27;;;9.80;99.90;;;;;;5043523;28;20505;-77
2021/05/03 06:28:43;;;;;;;40.53;29.80;;;9.80;99.90;;;;;;5043367;28;20206;-78
2021/05/03 06:31:09;;;;;;;48.83;32.97;;;9.90;99.90;;;;;;5053403;28;20297;-79
2021/05/03 06:33:36;;;;;;;42.37;31.07;;;9.90;99.90;;;;;;5063091;28;20197;-78
2021/05/03 06:36:02;;;;;;;42.93;30.40;;;9.90;99.90;;;;;;5045381;28;20221;-79
2021/05/03 06:38:29;;;;;;;45.77;30.47;;;10.00;99.90;;;;;;5043299;28;20471;-79
2021/05/03 06:40:55;;;;;;;39.27;31.50;;;10.00;99.90;;;;;;5043605;28;20198;-78
2021/05/03 06:43:21;;;;;;;43.90;30.33;;;10.10;99.90;;;;;;5044294;28;20229;-82
2021/05/03 06:45:48;;;;;;;47.77;29.80;;;10.10;99.90;;;;;;5047152;28;20202;-80
2021/05/03 06:48:15;;;;;;;42.33;28.07;;;10.20;99.90;;;;;;5047204;28;20263;-81
2021/05/03 06:50:43;;;;;;;39.67;27.03;;;10.30;99.90;;;;;;5046594;28;20812;-77
2021/05/03 06:53:10;;;;;;;40.30;26.63;;;10.30;99.90;;;;;;5046603;28;20336;-79
2021/05/03 06:55:36;;;;;;;37.27;26.00;;;10.40;99.90;;;;;;5046603;28;20237;-77
2021/05/03 06:58:03;;;;;;;40.83;28.93;;;10.50;99.90;;;;;;5046905;28;20748;-77
2021/05/03 07:00:29;;;;;;;32.87;25.37;;;10.70;99.90;;;;;;5046919;28;20243;-78
2021/05/03 07:02:56;;;;;;;32.70;23.10;;;10.80;99.90;;;;;;5046617;28;20248;-79
2021/05/03 07:05:23;;;;;;;34.47;23.27;;;11.10;99.90;;;;;;5046284;28;20216;-80
2021/05/03 07:07:49;;;;;;;33.13;22.07;;;11.40;99.90;;;;;;5046073;28;20212;-80
2021/05/03 07:10:15;;;;;;;29.87;20.87;;;11.70;99.90;;;;;;5046166;28;20225;-79
2021/05/03 07:12:46;;;;;;;27.70;19.97;;;12.00;99.90;;;;;;5045321;28;20317;-78
2021/05/03 07:15:13;;;;;;;32.00;20.43;;;12.20;99.90;;;;;;5046252;28;20200;-79
2021/05/03 07:17:40;;;;;;;30.27;20.23;;;12.30;99.90;;;;;;5046768;28;20202;-78
2021/05/03 07:23:33;;;;;;;27.70;17.97;;;13.00;99.90;;;;;;5056470;28;20316;-76
2021/05/03 07:26:00;;;;;;;25.03;16.17;;;13.60;99.90;;;;;;5067622;28;20209;-78
2021/05/03 07:28:26;;;;;;;22.90;16.93;;;13.90;99.90;;;;;;5058211;28;20213;-76
2021/05/03 07:30:57;;;;;;;23.93;16.27;;;14.20;99.90;;;;;;5045955;28;20221;-77
2021/05/03 07:33:24;;;;;;;24.87;14.97;;;14.50;99.90;;;;;;5045605;28;20202;-76
2021/05/03 07:35:51;;;;;;;23.27;15.37;;;14.70;99.90;;;;;;5046496;28;20505;-78
2021/05/03 07:38:17;;;;;;;22.73;14.80;;;14.80;99.90;;;;;;5042459;28;20201;-77
2021/05/03 07:40:44;;;;;;;25.40;16.53;;;15.00;99.90;;;;;;5044359;28;20195;-78
2021/05/03 07:43:10;;;;;;;21.03;16.20;;;14.90;99.90;;;;;;5045262;28;20202;-76
2021/05/03 07:45:37;;;;;;;26.57;16.63;;;14.90;99.90;;;;;;5044733;28;20293;-75
2021/05/03 07:48:04;;;;;;;27.17;16.13;;;14.90;99.90;;;;;;5045627;28;20206;-76
2021/05/03 07:50:30;;;;;;;22.70;15.63;;;14.90;99.90;;;;;;5045328;28;20237;-77
2021/05/03 07:52:57;;;;;;;20.60;15.50;;;14.90;99.90;;;;;;5045370;28;20233;-76
2021/05/03 07:55:24;;;;;;;20.43;14.90;;;14.70;99.90;;;;;;5044004;28;21011;-78
2021/05/03 07:57:52;;;;;;;23.83;15.67;;;14.80;99.90;;;;;;5045019;28;20697;-77
2021/05/03 08:00:20;;;;;;;20.77;15.10;;;14.90;99.90;;;;;;5044962;28;20855;-79
2021/05/03 08:02:46;;;;;;;21.07;14.93;;;14.80;99.90;;;;;;5045225;28;20652;-83
2021/05/03 08:05:13;;;;;;;21.37;14.50;;;14.90;99.90;;;;;;5045395;28;20206;-75
2021/05/03 08:07:39;;;;;;;22.93;15.07;;;15.10;99.90;;;;;;5045412;28;20251;-78
2021/05/03 08:10:06;;;;;;;20.00;14.03;;;15.10;99.90;;;;;;5044433;28;21009;-77
2021/05/03 08:12:33;;;;;;;26.27;15.47;;;15.10;99.90;;;;;;5045426;28;20202;-75
2021/05/03 08:15:09;;;;;;;24.63;15.43;;;15.20;99.90;;;;;;5045266;28;20202;-76
2021/05/03 08:17:37;;;;;;;20.97;14.53;;;15.10;99.90;;;;;;5043199;28;20204;-75
2021/05/03 08:20:05;;;;;;;19.53;14.53;;;15.30;99.90;;;;;;5045819;28;20202;-74
2021/05/03 08:22:32;;;;;;;20.77;15.50;;;15.50;99.90;;;;;;5044979;28;20265;-75
2021/05/03 08:24:58;;;;;;;24.27;16.37;;;15.60;99.90;;;;;;5045502;28;20202;-77
2021/05/03 08:27:25;;;;;;;23.87;15.67;;;15.70;99.90;;;;;;5046196;28;20244;-75
2021/05/03 08:29:51;;;;;;;24.33;16.30;;;15.60;99.90;;;;;;5043917;28;20927;-76
2021/05/03 08:32:18;;;;;;;21.13;15.17;;;15.70;99.90;;;;;;5044406;28;20219;-76
2021/05/03 08:34:45;;;;;;;21.80;15.60;;;15.80;99.90;;;;;;5044666;28;20863;-78
2021/05/03 08:37:12;;;;;;;23.90;15.13;;;15.70;99.90;;;;;;5043934;28;20194;-79
2021/05/03 08:39:39;;;;;;;23.60;15.50;;;15.80;99.90;;;;;;5045143;28;20198;-80
2021/05/03 08:42:08;;;;;;;24.10;15.07;;;15.70;99.90;;;;;;5061363;28;20247;-75
2021/05/03 08:44:34;;;;;;;22.50;14.77;;;15.60;99.90;;;;;;5063759;28;20201;-74
2021/05/03 08:47:00;;;;;;;19.90;14.70;;;15.50;99.90;;;;;;5064914;28;20593;-76
2021/05/03 08:49:34;;;;;;;22.17;15.17;;;15.50;99.90;;;;;;5062865;28;20193;-76
2021/05/03 08:52:09;;;;;;;19.50;14.17;;;15.70;99.90;;;;;;5046758;28;20229;-75
2021/05/03 08:54:38;;;;;;;21.70;13.37;;;15.70;99.90;;;;;;5045473;28;20205;-76
2021/05/03 08:57:06;;;;;;;18.07;14.03;;;15.70;99.90;;;;;;5045477;28;20316;-75
2021/05/03 08:59:35;;;;;;;20.85;12.98;;;15.70;99.90;;;;;;5045378;28;20213;-75
2021/05/03 09:02:03;;;;;;;19.77;13.77;;;15.60;99.90;;;;;;5048550;28;20614;-77
2021/05/03 09:04:30;;;;;;;18.70;11.97;;;15.70;99.90;;;;;;5061565;28;20220;-78
2021/05/03 09:07:08;;;;;;;21.23;12.77;;;15.70;99.90;;;;;;5064346;28;20648;-75
2021/05/03 09:09:36;;;;;;;18.73;12.70;;;15.70;99.90;;;;;;5061872;28;20218;-82
2021/05/03 09:12:05;;;;;;;22.23;12.80;;;15.90;99.90;;;;;;5043853;28;20198;-76
2021/05/03 09:14:32;;;;;;;18.23;11.87;;;16.00;99.90;;;;;;5044094;28;20217;-80
2021/05/03 09:16:59;;;;;;;18.03;11.80;;;16.10;99.90;;;;;;5044236;28;20215;-79
2021/05/03 09:19:26;;;;;;;21.73;12.30;;;16.30;99.90;;;;;;5044249;28;20210;-76
2021/05/03 09:21:54;;;;;;;19.85;11.68;;;16.20;99.90;;;;;;5045510;28;20245;-78
2021/05/03 09:24:23;;;;;;;15.87;12.10;;;16.10;99.90;;;;;;5045967;28;20210;-76
2021/05/03 09:27:01;;;;;;;19.67;12.47;;;16.00;99.90;;;;;;5045646;28;20301;-80
2021/05/03 09:29:34;;;;;;;17.03;10.27;;;16.00;99.90;;;;;;5043641;28;20217;-75
2021/05/03 09:32:06;;;;;;;18.50;10.60;;;15.90;99.90;;;;;;5044068;28;20194;-75
2021/05/03 09:34:34;;;;;;;18.00;10.77;;;15.90;99.90;;;;;;5044764;28;20240;-74
2021/05/03 09:37:27;;;;;;;20.40;10.37;;;15.80;99.90;;;;;;5045603;28;20300;-79
2021/05/03 09:39:59;;;;;;;19.80;9.80;;;15.90;99.90;;;;;;5043509;28;20198;-76
2021/05/03 09:42:44;;;;;;;19.00;10.43;;;16.20;99.90;;;;;;5044510;28;20614;-78
2021/05/03 09:45:12;;;;;;;14.80;9.60;;;16.40;99.90;;;;;;5045291;28;20289;-74
2021/05/03 09:47:39;;;;;;;12.80;8.33;;;16.40;99.90;;;;;;5043720;28;20206;-76
2021/05/03 09:50:10;;;;;;;20.47;11.17;;;16.50;99.90;;;;;;5044538;28;20538;-76
2021/05/03 09:52:38;;;;;;;13.90;8.73;;;16.30;99.90;;;;;;5044527;28;20229;-79
2021/05/03 09:55:27;;;;;;;15.37;8.50;;;16.20;99.90;;;;;;5044644;28;20233;-78
2021/05/03 09:58:09;;;;;;;16.60;9.70;;;16.20;99.90;;;;;;5043847;28;20562;-77
2021/05/03 10:00:37;;;;;;;15.23;8.17;;;16.00;99.90;;;;;;5043384;28;20263;-80
2021/05/03 10:03:30;;;;;;;13.57;8.27;;;16.00;99.90;;;;;;5043756;28;20209;-75
2021/05/03 10:05:57;;;;;;;19.43;8.50;;;16.00;99.90;;;;;;5043111;28;20626;-76
2021/05/03 10:08:25;;;;;;;14.87;8.70;;;16.00;99.90;;;;;;5042511;28;20198;-79
2021/05/03 10:10:53;;;;;;;20.90;9.87;;;16.00;99.90;;;;;;5044182;28;20218;-77
2021/05/03 10:13:20;;;;;;;14.17;8.30;;;16.00;99.90;;;;;;5042329;28;20844;-74
2021/05/03 10:15:47;;;;;;;13.80;9.03;;;16.20;99.90;;;;;;5042951;28;20214;-76
2021/05/03 10:18:18;;;;;;;14.17;7.93;;;16.10;99.90;;;;;;5063952;28;20628;-76
2021/05/03 10:20:45;;;;;;;13.70;8.40;;;16.30;99.90;;;;;;5050839;28;20292;-78
2021/05/03 10:23:12;;;;;;;14.67;8.77;;;16.70;99.90;;;;;;5065505;28;20525;-75
2021/05/03 10:25:41;;;;;;;18.03;9.60;;;16.70;99.90;;;;;;5045894;28;20237;-81
2021/05/03 10:28:09;;;;;;;12.43;8.70;;;16.80;99.90;;;;;;5046164;28;20209;-75
2021/05/03 10:30:42;;;;;;;16.07;8.80;;;16.80;99.90;;;;;;5045756;28;20221;-73
2021/05/03 10:33:10;;;;;;;11.43;7.23;;;16.90;99.90;;;;;;5045513;28;20936;-75
2021/05/03 10:35:40;;;;;;;13.95;8.05;;;16.90;99.90;;;;;;5046879;28;20206;-83
2021/05/03 10:38:08;;;;;;;14.37;8.00;;;17.00;99.90;;;;;;5062666;28;20224;-76
2021/05/03 10:40:44;;;;;;;13.23;7.47;;;16.80;99.90;;;;;;5065739;28;20194;-78
2021/05/03 10:43:14;;;;;;;10.43;6.30;;;16.70;99.90;;;;;;5046943;28;20300;-79
2021/05/03 10:45:48;;;;;;;13.63;6.80;;;16.80;99.90;;;;;;5046434;28;20599;-78
2021/05/03 10:48:43;;;;;;;17.27;7.07;;;16.70;99.90;;;;;;5044755;28;20267;-77
2021/05/03 10:51:36;;;;;;;11.07;6.40;;;16.70;99.90;;;;;;5047404;28;20234;-80
2021/05/03 10:54:51;;;;;;;15.57;7.72;;;16.60;99.90;;;;;;5046812;28;20297;-80
2021/05/03 10:57:36;;;;;;;13.40;7.70;;;16.70;99.90;;;;;;5053413;28;20210;-76
2021/05/03 11:00:08;;;;;;;11.27;5.60;;;16.70;99.90;;;;;;5045330;28;20530;-77
2021/05/03 11:02:47;;;;;;;11.87;6.00;;;16.60;99.90;;;;;;5055325;28;20227;-77
2021/05/03 11:05:22;;;;;;;13.05;5.30;;;16.50;99.90;;;;;;5044619;28;20259;-76
2021/05/03 11:08:28;;;;;;;11.77;5.93;;;16.60;99.90;;;;;;5045161;28;20213;-77
2021/05/03 11:10:57;;;;;;;10.33;4.57;;;16.70;99.90;;;;;;5065283;28;20802;-76
2021/05/03 11:14:00;;;;;;;11.32;5.25;;;16.90;99.90;;;;;;5063295;28;20501;-75
2021/05/03 11:16:46;;;;;;;8.77;4.87;;;16.90;99.90;;;;;;5064814;28;20266;-76
2021/05/03 11:19:35;;;;;;;14.10;5.73;;;17.00;99.90;;;;;;5046337;28;20221;-76
2021/05/03 11:22:03;;;;;;;11.63;5.13;;;16.80;99.90;;;;;;5046667;28;20456;-76
2021/05/03 11:24:32;;;;;;;11.00;5.40;;;16.70;99.90;;;;;;5045240;28;20248;-77
2021/05/03 11:27:00;;;;;;;11.53;4.90;;;16.70;99.90;;;;;;5044694;28;20279;-75
2021/05/03 11:29:34;;;;;;;9.23;4.33;;;16.70;99.90;;;;;;5043948;28;20214;-76
2021/05/03 11:32:01;;;;;;;11.10;4.47;;;16.70;99.90;;;;;;5044683;28;20297;-79
2021/05/03 11:34:31;;;;;;;13.13;4.80;;;16.80;99.90;;;;;;5045189;28;20198;-76
2021/05/03 11:37:00;;;;;;;10.83;4.77;;;17.00;99.90;;;;;;5045274;28;20263;-76
2021/05/03 11:39:33;;;;;;;9.60;4.43;;;17.00;99.90;;;;;;5044587;28;20221;-77
2021/05/03 11:42:32;;;;;;;7.22;4.15;;;17.30;99.90;;;;;;5044864;28;20250;-77
2021/05/03 11:44:59;;;;;;;11.53;4.10;;;17.20;99.90;;;;;;5045341;28;20236;-75
2021/05/03 11:47:30;;;;;;;9.63;5.13;;;17.00;99.90;;;;;;5043787;28;20213;-76
2021/05/03 11:49:57;;;;;;;11.03;5.00;;;17.00;99.90;;;;;;5042615;28;20226;-76
2021/05/03 11:52:28;;;;;;;8.65;4.13;;;17.20;99.90;;;;;;5063675;28;20925;-76
2021/05/03 11:54:55;;;;;;;6.97;4.03;;;17.30;99.90;;;;;;5063281;28;20218;-76
2021/05/03 11:57:22;;;;;;;10.05;3.78;;;17.30;99.90;;;;;;5050987;28;20237;-77
2021/05/03 12:00:00;;;;;;;8.65;4.07;;;17.30;99.90;;;;;;5044647;28;20280;-75
2021/05/03 12:02:27;;;;;;;6.78;3.60;;;17.50;99.90;;;;;;5043761;28;20317;-76
2021/05/03 12:04:54;;;;;;;7.57;3.73;;;17.60;99.90;;;;;;5044631;28;20206;-76
2021/05/03 12:07:22;;;;;;;7.95;4.20;;;17.60;99.90;;;;;;5043920;28;20223;-75
2021/05/03 12:09:59;;;;;;;9.50;4.27;;;17.50;99.90;;;;;;5042053;28;20202;-76
2021/05/03 12:12:31;;;;;;;8.50;4.47;;;17.70;99.90;;;;;;5044660;28;20216;-76
2021/05/03 12:14:57;;;;;;;8.50;4.63;;;17.80;99.90;;;;;;5044067;28;20206;-75
2021/05/03 12:17:26;;;;;;;8.37;4.60;;;17.90;99.90;;;;;;5044152;28;20464;-76
2021/05/03 12:19:54;;;;;;;8.38;5.18;;;17.90;99.90;;;;;;5044339;28;20213;-75
2021/05/03 12:22:21;;;;;;;10.63;5.10;;;17.90;99.90;;;;;;5043367;28;20635;-77
2021/05/03 12:24:50;;;;;;;8.40;5.15;;;17.90;99.90;;;;;;5044534;28;20268;-76
2021/05/03 12:27:16;;;;;;;8.02;5.10;;;17.80;99.90;;;;;;5044359;28;20210;-75
2021/05/03 12:29:44;;;;;;;11.35;5.30;;;17.80;99.90;;;;;;5043485;28;20214;-76
2021/05/03 12:32:13;;;;;;;9.00;5.05;;;17.70;99.90;;;;;;5044877;28;20525;-79
2021/05/03 12:34:43;;;;;;;8.30;5.03;;;17.70;99.90;;;;;;5043644;28;20213;-75
2021/05/03 12:37:12;;;;;;;8.68;5.25;;;17.60;99.90;;;;;;5043947;28;20206;-75
2021/05/03 12:39:53;;;;;;;8.43;4.60;;;17.70;99.90;;;;;;5043414;28;20224;-76
2021/05/03 12:42:20;;;;;;;11.73;5.75;;;17.60;99.90;;;;;;5043497;28;20573;-76
2021/05/03 12:44:50;;;;;;;15.68;8.15;;;17.40;99.90;;;;;;5054198;28;20201;-76
2021/05/03 12:47:31;;;;;;;14.73;7.35;;;17.40;99.90;;;;;;5063640;28;20205;-76
2021/05/03 12:50:04;;;;;;;13.05;7.97;;;17.40;99.90;;;;;;5062958;28;20847;-76
2021/05/03 12:52:36;;;;;;;7.60;6.75;;;17.40;99.90;;;;;;5045042;28;20517;-76
2021/05/03 12:55:08;;;;;;;12.32;7.20;;;17.40;99.90;;;;;;5044098;28;20214;-77
2021/05/03 12:57:50;;;;;;;14.63;7.32;;;17.30;99.90;;;;;;5043030;28;20220;-79
2021/05/03 13:00:21;;;;;;;10.32;6.28;;;17.40;99.90;;;;;;5043475;28;20606;-76